sensor_id;sensor_type;location;lat;lon;timestamp;pressure;altitude;pressure_sealevel;temperature;humidity
10167;BME280;62970;53.130;8.244;2023-01-10T00:02:02;100811.47;;;3.02;75.65
10167;BME280;62970;53.130;8.244;2023-01-10T00:04:34;100820.13;;;3.10;75.97
10167;BME280;62970;53.130;8.244;2023-01-10T00:07:03;100827.91;;;3.20;76.66
10167;BME280;62970;53.130;8.244;2023-01-10T00:09:33;100834.84;;;3.28;76.45
10167;BME280;62970;53.130;8.244;2023-01-10T00:12:03;100852.97;;;3.37;76.51
10167;BME280;62970;53.130;8.244;2023-01-10T00:14:44;100853.03;;;3.48;76.36
10167;BME280;62970;53.130;8.244;2023-01-10T00:17:14;100861.66;;;3.55;76.29
10167;BME280;62970;53.130;8.244;2023-01-10T00:19:47;100874.63;;;3.62;76.43
10167;BME280;62970;53.130;8.244;2023-01-10T00:22:16;100870.38;;;3.70;76.24
10167;BME280;62970;53.130;8.244;2023-01-10T00:24:50;100873.00;;;3.78;76.26
10167;BME280;62970;53.130;8.244;2023-01-10T00:27:20;100885.06;;;3.82;75.97
10167;BME280;62970;53.130;8.244;2023-01-10T00:29:50;100872.16;;;3.85;75.87
10167;BME280;62970;53.130;8.244;2023-01-10T00:32:21;100879.91;;;3.82;75.45
10167;BME280;62970;53.130;8.244;2023-01-10T00:34:53;100882.44;;;3.77;75.48
10167;BME280;62970;53.130;8.244;2023-01-10T00:37:23;100889.28;;;3.71;74.76
10167;BME280;62970;53.130;8.244;2023-01-10T00:39:52;100885.78;;;3.63;74.87
10167;BME280;62970;53.130;8.244;2023-01-10T00:42:23;100890.03;;;3.53;74.30
10167;BME280;62970;53.130;8.244;2023-01-10T00:45:07;100891.66;;;3.43;73.93
10167;BME280;62970;53.130;8.244;2023-01-10T00:47:37;100893.31;;;3.34;74.23
10167;BME280;62970;53.130;8.244;2023-01-10T00:50:10;100896.69;;;3.25;74.10
10167;BME280;62970;53.130;8.244;2023-01-10T00:52:39;100899.19;;;3.18;74.11
10167;BME280;62970;53.130;8.244;2023-01-10T00:55:09;100899.16;;;3.11;74.38
10167;BME280;62970;53.130;8.244;2023-01-10T00:57:38;100914.56;;;3.05;74.74
10167;BME280;62970;53.130;8.244;2023-01-10T01:00:10;100923.97;;;3.02;74.70
10167;BME280;62970;53.130;8.244;2023-01-10T01:02:39;100923.91;;;2.97;74.66
10167;BME280;62970;53.130;8.244;2023-01-10T01:05:11;100924.72;;;2.93;74.79
10167;BME280;62970;53.130;8.244;2023-01-10T01:07:47;100941.00;;;2.89;74.93
10167;BME280;62970;53.130;8.244;2023-01-10T01:10:17;100944.38;;;2.87;74.91
10167;BME280;62970;53.130;8.244;2023-01-10T01:12:57;100953.78;;;2.83;74.66
10167;BME280;62970;53.130;8.244;2023-01-10T01:15:27;100958.06;;;2.81;75.21
10167;BME280;62970;53.130;8.244;2023-01-10T01:17:56;100970.06;;;2.79;75.01
10167;BME280;62970;53.130;8.244;2023-01-10T01:20:29;100975.22;;;2.79;75.49
10167;BME280;62970;53.130;8.244;2023-01-10T01:22:59;100983.81;;;2.81;75.25
10167;BME280;62970;53.130;8.244;2023-01-10T01:25:28;100975.25;;;2.84;75.92
10167;BME280;62970;53.130;8.244;2023-01-10T01:27:57;100983.88;;;2.87;75.89
10167;BME280;62970;53.130;8.244;2023-01-10T01:30:27;100989.13;;;2.92;75.88
10167;BME280;62970;53.130;8.244;2023-01-10T01:32:57;100994.34;;;2.98;76.50
10167;BME280;62970;53.130;8.244;2023-01-10T01:35:29;101002.13;;;3.04;76.53
10167;BME280;62970;53.130;8.244;2023-01-10T01:37:58;101003.94;;;3.11;76.41
10167;BME280;62970;53.130;8.244;2023-01-10T01:40:28;101009.09;;;3.12;76.02
10167;BME280;62970;53.130;8.244;2023-01-10T01:42:57;101005.69;;;3.15;76.03
10167;BME280;62970;53.130;8.244;2023-01-10T01:45:45;101021.13;;;3.13;75.93
10167;BME280;62970;53.130;8.244;2023-01-10T01:48:30;101030.56;;;3.11;75.48
10167;BME280;62970;53.130;8.244;2023-01-10T01:51:08;101026.28;;;3.12;75.56
10167;BME280;62970;53.130;8.244;2023-01-10T01:53:42;101042.59;;;3.11;75.76
10167;BME280;62970;53.130;8.244;2023-01-10T01:56:19;101040.84;;;3.08;75.62
10167;BME280;62970;53.130;8.244;2023-01-10T01:58:53;101048.53;;;3.05;75.38
10167;BME280;62970;53.130;8.244;2023-01-10T02:01:24;101053.63;;;3.01;75.40
10167;BME280;62970;53.130;8.244;2023-01-10T02:03:58;101048.44;;;2.96;75.18
10167;BME280;62970;53.130;8.244;2023-01-10T02:06:32;101056.09;;;2.92;75.15
10167;BME280;62970;53.130;8.244;2023-01-10T02:09:09;101068.88;;;2.86;74.67
10167;BME280;62970;53.130;8.244;2023-01-10T02:11:40;101058.50;;;2.81;74.49
10167;BME280;62970;53.130;8.244;2023-01-10T02:14:15;101067.88;;;2.76;74.87
10167;BME280;62970;53.130;8.244;2023-01-10T02:16:45;101065.25;;;2.71;74.89
10167;BME280;62970;53.130;8.244;2023-01-10T02:19:24;101073.81;;;2.69;74.80
10167;BME280;62970;53.130;8.244;2023-01-10T02:26:08;101079.72;;;2.63;75.40
10167;BME280;62970;53.130;8.244;2023-01-10T02:29:33;101075.41;;;2.61;75.36
10167;BME280;62970;53.130;8.244;2023-01-10T02:32:42;101083.13;;;2.61;75.14
10167;BME280;62970;53.130;8.244;2023-01-10T02:35:36;101085.75;;;2.64;76.13
10167;BME280;62970;53.130;8.244;2023-01-10T02:38:18;101084.97;;;2.69;76.01
10167;BME280;62970;53.130;8.244;2023-01-10T02:41:02;101089.34;;;2.75;76.23
10167;BME280;62970;53.130;8.244;2023-01-10T02:43:40;101086.84;;;2.81;76.29
10167;BME280;62970;53.130;8.244;2023-01-10T02:49:02;101100.75;;;2.92;76.64
10167;BME280;62970;53.130;8.244;2023-01-10T02:51:32;101093.09;;;2.98;76.31
10167;BME280;62970;53.130;8.244;2023-01-10T02:54:04;101100.91;;;3.04;76.47
10167;BME280;62970;53.130;8.244;2023-01-10T03:00:23;101109.53;;;3.08;75.86
10167;BME280;62970;53.130;8.244;2023-01-10T03:03:22;101106.94;;;3.05;75.47
10167;BME280;62970;53.130;8.244;2023-01-10T03:06:17;101108.59;;;3.00;75.54
10167;BME280;62970;53.130;8.244;2023-01-10T03:08:55;101115.38;;;2.95;75.28
10167;BME280;62970;53.130;8.244;2023-01-10T03:11:30;101118.69;;;2.88;75.03
10167;BME280;62970;53.130;8.244;2023-01-10T03:14:16;101122.06;;;2.82;75.12
10167;BME280;62970;53.130;8.244;2023-01-10T03:16:52;101127.13;;;2.76;75.15
10167;BME280;62970;53.130;8.244;2023-01-10T03:19:26;101119.34;;;2.71;74.83
10167;BME280;62970;53.130;8.244;2023-01-10T03:22:01;101129.56;;;2.67;75.07
10167;BME280;62970;53.130;8.244;2023-01-10T03:24:35;101133.81;;;2.63;75.29
10167;BME280;62970;53.130;8.244;2023-01-10T03:27:12;101142.38;;;2.62;75.62
10167;BME280;62970;53.130;8.244;2023-01-10T03:29:51;101144.94;;;2.62;75.71
10167;BME280;62970;53.130;8.244;2023-01-10T03:32:27;101148.41;;;2.64;76.08
10167;BME280;62970;53.130;8.244;2023-01-10T03:35:00;101147.63;;;2.70;76.34
10167;BME280;62970;53.130;8.244;2023-01-10T03:37:40;101157.16;;;2.74;76.54
10167;BME280;62970;53.130;8.244;2023-01-10T03:40:18;101155.44;;;2.76;76.39
10167;BME280;62970;53.130;8.244;2023-01-10T03:42:57;101163.22;;;2.79;76.00
10167;BME280;62970;53.130;8.244;2023-01-10T03:45:47;101166.66;;;2.78;75.86
10167;BME280;62970;53.130;8.244;2023-01-10T03:48:20;101181.28;;;2.80;76.03
10167;BME280;62970;53.130;8.244;2023-01-10T03:50:52;101178.78;;;2.85;76.47
10167;BME280;62970;53.130;8.244;2023-01-10T03:53:24;101177.16;;;2.90;76.49
10167;BME280;62970;53.130;8.244;2023-01-10T03:55:54;101183.22;;;2.94;76.30
10167;BME280;62970;53.130;8.244;2023-01-10T03:58:23;101194.41;;;2.96;76.40
10167;BME280;62970;53.130;8.244;2023-01-10T04:00:52;101194.44;;;2.97;76.26
10167;BME280;62970;53.130;8.244;2023-01-10T04:03:22;101202.19;;;2.99;76.39
10167;BME280;62970;53.130;8.244;2023-01-10T04:05:51;101202.13;;;2.96;76.08
10167;BME280;62970;53.130;8.244;2023-01-10T04:08:24;101202.09;;;2.93;75.37
10167;BME280;62970;53.130;8.244;2023-01-10T04:10:53;101212.28;;;2.88;75.49
10167;BME280;62970;53.130;8.244;2023-01-10T04:13:22;101213.09;;;2.84;75.15
10167;BME280;62970;53.130;8.244;2023-01-10T04:15:52;101216.44;;;2.78;75.64
10167;BME280;62970;53.130;8.244;2023-01-10T04:18:23;101223.28;;;2.76;75.21
10167;BME280;62970;53.130;8.244;2023-01-10T04:20:52;101230.09;;;2.73;75.25
10167;BME280;62970;53.130;8.244;2023-01-10T04:23:24;101228.31;;;2.69;75.35
10167;BME280;62970;53.130;8.244;2023-01-10T04:25:54;101226.59;;;2.68;75.98
10167;BME280;62970;53.130;8.244;2023-01-10T04:28:23;101236.84;;;2.66;75.75
10167;BME280;62970;53.130;8.244;2023-01-10T04:30:52;101232.56;;;2.65;75.62
10167;BME280;62970;53.130;8.244;2023-01-10T04:33:22;101236.81;;;2.63;75.93
10167;BME280;62970;53.130;8.244;2023-01-10T04:35:51;101232.50;;;2.62;75.95
10167;BME280;62970;53.130;8.244;2023-01-10T04:38:23;101246.25;;;2.63;76.20
10167;BME280;62970;53.130;8.244;2023-01-10T04:40:56;101244.53;;;2.63;76.47
10167;BME280;62970;53.130;8.244;2023-01-10T04:43:25;101248.88;;;2.67;76.68
10167;BME280;62970;53.130;8.244;2023-01-10T04:45:54;101253.28;;;2.73;76.82
10167;BME280;62970;53.130;8.244;2023-01-10T04:48:23;101252.50;;;2.78;76.61
10167;BME280;62970;53.130;8.244;2023-01-10T04:50:54;101249.19;;;2.86;76.90
10167;BME280;62970;53.130;8.244;2023-01-10T04:53:28;101255.22;;;2.88;76.28
10167;BME280;62970;53.130;8.244;2023-01-10T04:56:01;101264.69;;;2.89;76.22
10167;BME280;62970;53.130;8.244;2023-01-10T04:58:33;101267.31;;;2.90;76.30
10167;BME280;62970;53.130;8.244;2023-01-10T05:01:07;101272.47;;;2.90;76.13
10167;BME280;62970;53.130;8.244;2023-01-10T05:03:37;101273.34;;;2.91;76.28
10167;BME280;62970;53.130;8.244;2023-01-10T05:06:07;101273.34;;;2.91;75.85
10167;BME280;62970;53.130;8.244;2023-01-10T05:08:40;101281.91;;;2.90;76.45
10167;BME280;62970;53.130;8.244;2023-01-10T05:11:09;101283.69;;;2.94;76.20
10167;BME280;62970;53.130;8.244;2023-01-10T05:13:39;101282.03;;;2.97;76.75
10167;BME280;62970;53.130;8.244;2023-01-10T05:16:09;101280.41;;;3.04;76.43
10167;BME280;62970;53.130;8.244;2023-01-10T05:18:38;101288.22;;;3.08;76.60
10167;BME280;62970;53.130;8.244;2023-01-10T05:21:10;101296.91;;;3.15;76.43
10167;BME280;62970;53.130;8.244;2023-01-10T05:23:43;101303.00;;;3.20;76.77
10167;BME280;62970;53.130;8.244;2023-01-10T05:26:15;101314.25;;;3.27;76.77
10167;BME280;62970;53.130;8.244;2023-01-10T05:28:44;101323.78;;;3.32;76.65
10167;BME280;62970;53.130;8.244;2023-01-10T05:31:17;101323.03;;;3.38;76.47
10167;BME280;62970;53.130;8.244;2023-01-10T05:33:49;101329.09;;;3.41;76.70
10167;BME280;62970;53.130;8.244;2023-01-10T05:36:22;101325.72;;;3.47;76.69
10167;BME280;62970;53.130;8.244;2023-01-10T05:38:54;101335.22;;;3.50;76.27
10167;BME280;62970;53.130;8.244;2023-01-10T05:41:24;101333.53;;;3.52;76.41
10167;BME280;62970;53.130;8.244;2023-01-10T05:43:53;101336.13;;;3.53;76.39
10167;BME280;62970;53.130;8.244;2023-01-10T05:46:22;101339.63;;;3.57;75.87
10167;BME280;62970;53.130;8.244;2023-01-10T05:48:51;101349.09;;;3.58;75.82
10167;BME280;62970;53.130;8.244;2023-01-10T05:51:21;101349.13;;;3.61;76.16
10167;BME280;62970;53.130;8.244;2023-01-10T05:53:53;101350.00;;;3.61;76.03
10167;BME280;62970;53.130;8.244;2023-01-10T05:56:23;101350.91;;;3.65;75.78
10167;BME280;62970;53.130;8.244;2023-01-10T05:58:54;101345.78;;;3.66;75.74
10167;BME280;62970;53.130;8.244;2023-01-10T06:01:23;101349.22;;;3.67;75.64
10167;BME280;62970;53.130;8.244;2023-01-10T06:03:52;101344.88;;;3.64;75.48
10167;BME280;62970;53.130;8.244;2023-01-10T06:06:23;101359.47;;;3.62;75.69
10167;BME280;62970;53.130;8.244;2023-01-10T06:08:55;101369.75;;;3.61;75.30
10167;BME280;62970;53.130;8.244;2023-01-10T06:11:25;101374.88;;;3.58;75.50
10167;BME280;62970;53.130;8.244;2023-01-10T06:13:55;101385.09;;;3.52;75.21
10167;BME280;62970;53.130;8.244;2023-01-10T06:16:25;101371.22;;;3.43;74.56
10167;BME280;62970;53.130;8.244;2023-01-10T06:18:56;101397.75;;;3.35;74.39
10167;BME280;62970;53.130;8.244;2023-01-10T06:21:26;101395.00;;;3.26;74.73
10167;BME280;62970;53.130;8.244;2023-01-10T06:23:59;101393.19;;;3.19;74.89
10167;BME280;62970;53.130;8.244;2023-01-10T06:26:28;101405.09;;;3.12;74.92
10167;BME280;62970;53.130;8.244;2023-01-10T06:28:58;101404.13;;;3.05;75.02
10167;BME280;62970;53.130;8.244;2023-01-10T06:31:27;101413.50;;;3.02;75.14
10167;BME280;62970;53.130;8.244;2023-01-10T06:33:59;101412.56;;;2.97;75.21
10167;BME280;62970;53.130;8.244;2023-01-10T06:36:28;101414.22;;;2.93;75.24
10167;BME280;62970;53.130;8.244;2023-01-10T06:39:01;101420.19;;;2.91;75.60
10167;BME280;62970;53.130;8.244;2023-01-10T06:41:30;101419.25;;;2.89;75.73
10167;BME280;62970;53.130;8.244;2023-01-10T06:43:59;101424.47;;;2.90;75.68
10167;BME280;62970;53.130;8.244;2023-01-10T06:46:29;101422.81;;;2.94;76.44
10167;BME280;62970;53.130;8.244;2023-01-10T06:48:59;101422.94;;;3.01;76.28
10167;BME280;62970;53.130;8.244;2023-01-10T06:51:29;101416.19;;;3.08;76.31
10167;BME280;62970;53.130;8.244;2023-01-10T06:54:02;101418.88;;;3.14;76.28
10167;BME280;62970;53.130;8.244;2023-01-10T06:56:31;101423.28;;;3.21;76.27
10167;BME280;62970;53.130;8.244;2023-01-10T06:59:01;101415.63;;;3.26;76.39
10167;BME280;62970;53.130;8.244;2023-01-10T07:01:30;101418.22;;;3.26;75.99
10167;BME280;62970;53.130;8.244;2023-01-10T07:03:59;101422.44;;;3.22;75.01
10167;BME280;62970;53.130;8.244;2023-01-10T07:06:29;101428.41;;;3.18;75.42
10167;BME280;62970;53.130;8.244;2023-01-10T07:09:01;101424.00;;;3.12;74.99
10167;BME280;62970;53.130;8.244;2023-01-10T07:11:31;101438.53;;;3.07;75.65
10167;BME280;62970;53.130;8.244;2023-01-10T07:14:00;101437.66;;;3.07;75.40
10167;BME280;62970;53.130;8.244;2023-01-10T07:16:33;101442.78;;;3.05;75.58
10167;BME280;62970;53.130;8.244;2023-01-10T07:19:12;101444.47;;;3.03;75.33
10167;BME280;62970;53.130;8.244;2023-01-10T07:21:43;101443.53;;;3.00;75.55
10167;BME280;62970;53.130;8.244;2023-01-10T07:24:19;101450.34;;;2.96;75.29
10167;BME280;62970;53.130;8.244;2023-01-10T07:26:50;101450.25;;;2.92;75.45
10167;BME280;62970;53.130;8.244;2023-01-10T07:29:19;101456.16;;;2.88;75.20
10167;BME280;62970;53.130;8.244;2023-01-10T07:31:51;101457.03;;;2.88;76.02
10167;BME280;62970;53.130;8.244;2023-01-10T07:34:20;101469.09;;;2.89;75.93
10167;BME280;62970;53.130;8.244;2023-01-10T07:36:49;101481.19;;;2.92;76.24
10167;BME280;62970;53.130;8.244;2023-01-10T07:39:21;101482.03;;;2.92;75.72
10167;BME280;62970;53.130;8.244;2023-01-10T07:41:50;101482.03;;;2.92;75.57
10167;BME280;62970;53.130;8.244;2023-01-10T07:44:20;101496.59;;;2.90;75.79
10167;BME280;62970;53.130;8.244;2023-01-10T07:46:49;101493.06;;;2.87;75.62
10167;BME280;62970;53.130;8.244;2023-01-10T07:49:19;101468.97;;;2.83;75.32
10167;BME280;62970;53.130;8.244;2023-01-10T07:51:48;101459.41;;;2.77;75.28
10167;BME280;62970;53.130;8.244;2023-01-10T07:54:21;101455.91;;;2.74;75.14
10167;BME280;62970;53.130;8.244;2023-01-10T07:56:51;101455.03;;;2.73;75.78
10167;BME280;62970;53.130;8.244;2023-01-10T07:59:20;101462.72;;;2.72;75.67
10167;BME280;62970;53.130;8.244;2023-01-10T08:01:49;101464.41;;;2.70;75.71
10167;BME280;62970;53.130;8.244;2023-01-10T08:04:19;101462.63;;;2.67;75.66
10167;BME280;62970;53.130;8.244;2023-01-10T08:06:48;101467.75;;;2.66;75.57
10167;BME280;62970;53.130;8.244;2023-01-10T08:09:20;101472.88;;;2.64;75.99
10167;BME280;62970;53.130;8.244;2023-01-10T08:11:50;101474.63;;;2.65;75.81
10167;BME280;62970;53.130;8.244;2023-01-10T08:14:19;101480.59;;;2.64;75.37
10167;BME280;62970;53.130;8.244;2023-01-10T08:16:48;101474.56;;;2.62;75.83
10167;BME280;62970;53.130;8.244;2023-01-10T08:19:17;101482.28;;;2.62;75.69
10167;BME280;62970;53.130;8.244;2023-01-10T08:21:46;101504.63;;;2.63;75.83
10167;BME280;62970;53.130;8.244;2023-01-10T08:24:16;101514.91;;;2.63;76.06
10167;BME280;62970;53.130;8.244;2023-01-10T08:26:48;101517.53;;;2.65;75.89
10167;BME280;62970;53.130;8.244;2023-01-10T08:29:18;101530.50;;;2.69;76.44
10167;BME280;62970;53.130;8.244;2023-01-10T08:31:49;101526.31;;;2.74;76.54
10167;BME280;62970;53.130;8.244;2023-01-10T08:34:18;101526.41;;;2.79;76.63
10167;BME280;62970;53.130;8.244;2023-01-10T08:36:49;101535.09;;;2.84;76.37
10167;BME280;62970;53.130;8.244;2023-01-10T08:39:20;101543.88;;;2.92;76.57
10167;BME280;62970;53.130;8.244;2023-01-10T08:41:54;101539.78;;;3.02;77.08
10167;BME280;62970;53.130;8.244;2023-01-10T08:44:24;101548.59;;;3.13;76.98
10167;BME280;62970;53.130;8.244;2023-01-10T08:46:53;101541.94;;;3.26;76.85
10167;BME280;62970;53.130;8.244;2023-01-10T08:49:22;101549.00;;;3.36;76.66
10167;BME280;62970;53.130;8.244;2023-01-10T08:51:53;101550.00;;;3.44;76.72
10167;BME280;62970;53.130;8.244;2023-01-10T08:54:23;101546.78;;;3.56;76.87
10167;BME280;62970;53.130;8.244;2023-01-10T08:56:55;101539.16;;;3.62;76.69
10167;BME280;62970;53.130;8.244;2023-01-10T08:59:24;101539.31;;;3.71;76.93
10167;BME280;62970;53.130;8.244;2023-01-10T09:01:54;101552.31;;;3.78;76.49
10167;BME280;62970;53.130;8.244;2023-01-10T09:04:25;101564.50;;;3.86;76.33
10167;BME280;62970;53.130;8.244;2023-01-10T09:06:54;101562.00;;;3.92;76.53
10167;BME280;62970;53.130;8.244;2023-01-10T09:09:24;101563.81;;;3.97;76.53
10167;BME280;62970;53.130;8.244;2023-01-10T09:11:56;101563.91;;;4.03;76.21
10167;BME280;62970;53.130;8.244;2023-01-10T09:14:25;101551.09;;;4.09;76.56
10167;BME280;62970;53.130;8.244;2023-01-10T09:16:55;101550.31;;;4.15;75.96
10167;BME280;62970;53.130;8.244;2023-01-10T09:19:24;101546.91;;;4.18;75.90
10167;BME280;62970;53.130;8.244;2023-01-10T09:21:54;101549.53;;;4.19;75.86
10167;BME280;62970;53.130;8.244;2023-01-10T09:24:23;101551.25;;;4.19;75.67
10167;BME280;62970;53.130;8.244;2023-01-10T09:26:52;101555.50;;;4.17;75.81
10167;BME280;62970;53.130;8.244;2023-01-10T09:29:26;101563.19;;;4.12;75.46
10167;BME280;62970;53.130;8.244;2023-01-10T09:31:55;101568.34;;;4.12;75.80
10167;BME280;62970;53.130;8.244;2023-01-10T09:34:25;101571.81;;;4.14;76.03
10167;BME280;62970;53.130;8.244;2023-01-10T09:36:54;101566.69;;;4.17;75.70
10167;BME280;62970;53.130;8.244;2023-01-10T09:39:23;101580.56;;;4.22;75.86
10167;BME280;62970;53.130;8.244;2023-01-10T09:42:17;101586.69;;;4.29;75.96
10167;BME280;62970;53.130;8.244;2023-01-10T09:45:01;101591.94;;;4.36;76.03
10167;BME280;62970;53.130;8.244;2023-01-10T09:47:39;101592.94;;;4.45;76.39
10167;BME280;62970;53.130;8.244;2023-01-10T09:50:17;101591.34;;;4.54;76.48
10167;BME280;62970;53.130;8.244;2023-01-10T09:52:52;101590.59;;;4.63;76.23
10167;BME280;62970;53.130;8.244;2023-01-10T09:55:27;101595.88;;;4.70;76.12
10167;BME280;62970;53.130;8.244;2023-01-10T09:58:00;101606.31;;;4.78;75.89
10167;BME280;62970;53.130;8.244;2023-01-10T10:00:40;101590.94;;;4.84;76.27
10167;BME280;62970;53.130;8.244;2023-01-10T10:03:22;101600.50;;;4.93;76.22
10167;BME280;62970;53.130;8.244;2023-01-10T10:05:53;101598.88;;;5.01;76.18
10167;BME280;62970;53.130;8.244;2023-01-10T10:08:23;101605.88;;;5.08;75.61
10167;BME280;62970;53.130;8.244;2023-01-10T10:14:06;101611.19;;;5.20;75.95
10167;BME280;62970;53.130;8.244;2023-01-10T10:16:57;101610.38;;;5.24;75.89
10167;BME280;62970;53.130;8.244;2023-01-10T10:19:42;101613.00;;;5.29;75.46
10167;BME280;62970;53.130;8.244;2023-01-10T10:22:26;101620.00;;;5.34;75.52
10167;BME280;62970;53.130;8.244;2023-01-10T10:25:12;101618.34;;;5.40;75.63
10167;BME280;62970;53.130;8.244;2023-01-10T10:28:01;101608.03;;;5.44;75.36
10167;BME280;62970;53.130;8.244;2023-01-10T10:30:43;101616.69;;;5.48;75.46
10167;BME280;62970;53.130;8.244;2023-01-10T10:33:41;101615.88;;;5.50;75.12
10167;BME280;62970;53.130;8.244;2023-01-10T10:36:21;101614.19;;;5.55;75.18
10167;BME280;62970;53.130;8.244;2023-01-10T10:38:56;101604.75;;;5.59;75.20
10167;BME280;62970;53.130;8.244;2023-01-10T10:41:32;101609.09;;;5.63;75.17
10167;BME280;62970;53.130;8.244;2023-01-10T10:44:24;101604.81;;;5.66;74.80
10167;BME280;62970;53.130;8.244;2023-01-10T10:46:58;101606.56;;;5.69;74.97
10167;BME280;62970;53.130;8.244;2023-01-10T10:49:37;101611.75;;;5.69;74.94
10167;BME280;62970;53.130;8.244;2023-01-10T10:52:18;101603.97;;;5.69;74.64
10167;BME280;62970;53.130;8.244;2023-01-10T10:54:51;101606.53;;;5.64;74.27
10167;BME280;62970;53.130;8.244;2023-01-10T10:57:24;101604.72;;;5.57;74.04
10167;BME280;62970;53.130;8.244;2023-01-10T10:59:55;101606.38;;;5.51;73.62
10167;BME280;62970;53.130;8.244;2023-01-10T11:02:28;101605.44;;;5.44;73.76
10167;BME280;62970;53.130;8.244;2023-01-10T11:05:04;101604.53;;;5.39;74.06
10167;BME280;62970;53.130;8.244;2023-01-10T11:07:36;101599.31;;;5.36;74.28
10167;BME280;62970;53.130;8.244;2023-01-10T11:10:14;101605.34;;;5.33;73.91
10167;BME280;62970;53.130;8.244;2023-01-10T11:12:56;101596.72;;;5.33;74.29
10167;BME280;62970;53.130;8.244;2023-01-10T11:15:40;101600.94;;;5.29;73.90
10167;BME280;62970;53.130;8.244;2023-01-10T11:18:13;101595.78;;;5.29;73.75
10167;BME280;62970;53.130;8.244;2023-01-10T11:20:53;101599.22;;;5.28;74.11
10167;BME280;62970;53.130;8.244;2023-01-10T11:26:26;101581.94;;;5.26;74.02
10167;BME280;62970;53.130;8.244;2023-01-10T11:29:06;101586.25;;;5.27;73.92
10167;BME280;62970;53.130;8.244;2023-01-10T11:31:37;101584.53;;;5.26;74.03
10167;BME280;62970;53.130;8.244;2023-01-10T11:34:19;101593.13;;;5.25;74.22
10167;BME280;62970;53.130;8.244;2023-01-10T11:36:56;101585.38;;;5.25;74.08
10167;BME280;62970;53.130;8.244;2023-01-10T11:39:27;101587.09;;;5.24;73.64
10167;BME280;62970;53.130;8.244;2023-01-10T11:42:17;101587.09;;;5.24;74.09
10167;BME280;62970;53.130;8.244;2023-01-10T11:44:54;101594.00;;;5.25;73.94
10167;BME280;62970;53.130;8.244;2023-01-10T11:47:27;101580.22;;;5.26;74.03
10167;BME280;62970;53.130;8.244;2023-01-10T11:49:57;101578.53;;;5.28;73.99
10167;BME280;62970;53.130;8.244;2023-01-10T11:52:30;101576.81;;;5.30;73.86
10167;BME280;62970;53.130;8.244;2023-01-10T11:55:00;101575.16;;;5.34;73.93
10167;BME280;62970;53.130;8.244;2023-01-10T11:57:31;101569.16;;;5.36;73.90
10167;BME280;62970;53.130;8.244;2023-01-10T12:00:05;101570.06;;;5.42;73.80
10167;BME280;62970;53.130;8.244;2023-01-10T12:02:39;101575.28;;;5.45;73.78
10167;BME280;62970;53.130;8.244;2023-01-10T12:05:12;101580.50;;;5.49;73.80
10167;BME280;62970;53.130;8.244;2023-01-10T12:08:01;101579.69;;;5.55;73.95
10167;BME280;62970;53.130;8.244;2023-01-10T12:10:35;101575.44;;;5.60;74.31
10167;BME280;62970;53.130;8.244;2023-01-10T12:13:14;101572.00;;;5.64;74.20
10167;BME280;62970;53.130;8.244;2023-01-10T12:15:44;101581.53;;;5.66;74.14
10167;BME280;62970;53.130;8.244;2023-01-10T12:18:14;101588.47;;;5.72;74.05
10167;BME280;62970;53.130;8.244;2023-01-10T12:20:48;101581.59;;;5.74;74.04
10167;BME280;62970;53.130;8.244;2023-01-10T12:23:24;101581.63;;;5.77;73.65
10167;BME280;62970;53.130;8.244;2023-01-10T12:26:00;101581.66;;;5.80;73.49
10167;BME280;62970;53.130;8.244;2023-01-10T12:28:30;101587.72;;;5.82;73.49
10167;BME280;62970;53.130;8.244;2023-01-10T12:31:00;101573.06;;;5.84;73.45
10167;BME280;62970;53.130;8.244;2023-01-10T12:33:35;101579.97;;;5.87;73.73
10167;BME280;62970;53.130;8.244;2023-01-10T12:36:19;101578.25;;;5.87;73.39
10167;BME280;62970;53.130;8.244;2023-01-10T12:42:16;101565.31;;;5.89;73.30
10167;BME280;62970;53.130;8.244;2023-01-10T12:45:09;101567.09;;;5.93;73.17
10167;BME280;62970;53.130;8.244;2023-01-10T12:47:58;101567.97;;;5.93;73.52
10167;BME280;62970;53.130;8.244;2023-01-10T12:50:34;101560.19;;;5.95;73.17
10167;BME280;62970;53.130;8.244;2023-01-10T12:53:24;101561.06;;;5.97;73.58
10167;BME280;62970;53.130;8.244;2023-01-10T12:56:08;101558.50;;;5.98;73.22
10167;BME280;62970;53.130;8.244;2023-01-10T12:58:44;101551.63;;;6.00;72.98
10167;BME280;62970;53.130;8.244;2023-01-10T13:04:08;101549.03;;;6.02;73.39
10167;BME280;62970;53.130;8.244;2023-01-10T13:06:41;101537.81;;;6.03;72.91
10167;BME280;62970;53.130;8.244;2023-01-10T13:09:17;101530.94;;;6.03;73.28
10167;BME280;62970;53.130;8.244;2023-01-10T13:11:58;101533.50;;;6.02;73.12
10167;BME280;62970;53.130;8.244;2023-01-10T13:14:36;101534.34;;;6.01;72.74
10167;BME280;62970;53.130;8.244;2023-01-10T13:17:21;101535.22;;;6.00;73.20
10167;BME280;62970;53.130;8.244;2023-01-10T13:20:38;101532.59;;;5.97;72.96
10167;BME280;62970;53.130;8.244;2023-01-10T13:23:21;101527.41;;;5.95;72.99
10167;BME280;62970;53.130;8.244;2023-01-10T13:25:58;101523.09;;;5.94;72.52
10167;BME280;62970;53.130;8.244;2023-01-10T13:31:23;101517.03;;;5.92;72.90
10167;BME280;62970;53.130;8.244;2023-01-10T13:33:56;101512.72;;;5.91;72.55
10167;BME280;62970;53.130;8.244;2023-01-10T13:36:29;101513.56;;;5.90;72.91
10167;BME280;62970;53.130;8.244;2023-01-10T13:39:04;101511.84;;;5.91;72.38
10167;BME280;62970;53.130;8.244;2023-01-10T13:42:21;101498.88;;;5.88;72.84
10167;BME280;62970;53.130;8.244;2023-01-10T13:45:26;101498.00;;;5.86;72.35
10167;BME280;62970;53.130;8.244;2023-01-10T13:48:22;101496.25;;;5.83;72.36
10167;BME280;62970;53.130;8.244;2023-01-10T13:51:16;101497.09;;;5.81;72.52
10167;BME280;62970;53.130;8.244;2023-01-10T13:54:22;101501.41;;;5.80;72.64
10167;BME280;62970;53.130;8.244;2023-01-10T13:56:53;101493.66;;;5.80;72.59
10167;BME280;62970;53.130;8.244;2023-01-10T13:59:59;101499.66;;;5.78;72.71
10167;BME280;62970;53.130;8.244;2023-01-10T14:02:45;101506.56;;;5.76;72.83
10167;BME280;62970;53.130;8.244;2023-01-10T14:05:18;101499.66;;;5.75;72.59